Time;durP1;ratioP1;P1;durP2;ratioP2;P2;SDS_P1;SDS_P2;PMS_P1;PMS_P2;Temp;Humidity;BMP_temperature;BMP_pressure;BME280_temperature;BME280_humidity;BME280_pressure;Samples;Min_cycle;Max_cycle;Signal;HPM_P1;HPM_P2
2023/11/10 00:01:53;;;;;;;4.82;3.30;;;6.80;72.70;;;;;;5096057;28;20189;-72
2023/11/10 00:04:21;;;;;;;4.80;2.85;;;6.70;73.00;;;;;;5096158;28;20194;-72
2023/11/10 00:06:48;;;;;;;5.47;3.28;;;6.60;72.30;;;;;;5096084;28;20213;-72
2023/11/10 00:09:18;;;;;;;4.50;2.80;;;6.60;71.80;;;;;;5096013;28;20213;-72
2023/11/10 00:11:45;;;;;;;4.60;2.75;;;6.50;72.00;;;;;;5095717;28;20640;-72
2023/11/10 00:14:12;;;;;;;4.53;2.90;;;6.50;72.50;;;;;;5096003;28;20194;-72
2023/11/10 00:16:39;;;;;;;4.97;3.50;;;6.50;71.60;;;;;;5095878;28;20221;-72
2023/11/10 00:19:08;;;;;;;5.72;3.63;;;6.50;71.30;;;;;;5095164;28;20252;-72
2023/11/10 00:21:37;;;;;;;5.18;2.70;;;6.40;71.30;;;;;;5095529;28;20282;-73
2023/11/10 00:24:05;;;;;;;6.13;3.38;;;6.30;70.90;;;;;;5095423;28;20189;-72
2023/11/10 00:26:34;;;;;;;4.97;2.78;;;6.20;71.20;;;;;;5095655;28;20251;-72
2023/11/10 00:29:01;;;;;;;6.75;3.63;;;6.10;71.80;;;;;;5095248;28;20213;-72
2023/11/10 00:31:28;;;;;;;4.35;3.22;;;6.10;71.80;;;;;;5095529;28;20189;-73
2023/11/10 00:33:55;;;;;;;7.20;2.97;;;6.00;71.50;;;;;;5095584;28;20194;-72
2023/11/10 00:36:23;;;;;;;4.82;2.50;;;5.90;72.20;;;;;;5095513;28;20190;-72
2023/11/10 00:38:51;;;;;;;5.60;3.35;;;5.90;72.70;;;;;;5095432;28;20246;-72
2023/11/10 00:41:19;;;;;;;4.32;2.95;;;5.90;73.30;;;;;;5095101;28;20204;-72
2023/11/10 00:43:46;;;;;;;5.68;3.28;;;5.90;73.90;;;;;;5095000;28;20727;-72
2023/11/10 00:46:13;;;;;;;5.82;3.05;;;5.90;74.50;;;;;;5094877;28;20194;-72
2023/11/10 00:48:40;;;;;;;5.68;3.08;;;5.90;74.90;;;;;;5095115;28;20196;-72
2023/11/10 00:51:07;;;;;;;5.03;2.88;;;5.90;75.20;;;;;;5095192;28;20547;-72
2023/11/10 00:53:34;;;;;;;4.43;3.35;;;5.80;74.50;;;;;;5095132;28;20193;-72
2023/11/10 00:56:03;;;;;;;8.23;3.90;;;5.80;73.90;;;;;;5095165;28;20282;-72
2023/11/10 00:58:32;;;;;;;5.90;3.78;;;5.80;74.30;;;;;;5094712;28;20651;-72
2023/11/10 01:00:59;;;;;;;7.18;3.78;;;5.80;74.50;;;;;;5095027;28;20189;-72
2023/11/10 01:03:26;;;;;;;6.95;3.50;;;5.70;74.00;;;;;;5094557;28;20528;-72
2023/11/10 01:05:53;;;;;;;6.10;3.05;;;5.60;73.70;;;;;;5094516;28;20281;-72
2023/11/10 01:08:20;;;;;;;5.30;3.60;;;5.50;73.80;;;;;;5095178;28;20246;-72
2023/11/10 01:10:47;;;;;;;8.15;4.00;;;5.50;74.30;;;;;;5095084;28;20255;-72
2023/11/10 01:13:16;;;;;;;4.75;2.95;;;5.50;74.50;;;;;;5094830;28;20190;-72
2023/11/10 01:15:43;;;;;;;4.60;3.30;;;5.50;73.40;;;;;;5094691;28;20606;-72
2023/11/10 01:18:11;;;;;;;6.65;3.20;;;5.40;73.00;;;;;;5094870;28;20189;-72
2023/11/10 01:20:38;;;;;;;5.70;3.30;;;5.40;73.20;;;;;;5094132;28;20221;-72
2023/11/10 01:23:05;;;;;;;4.97;3.20;;;5.40;73.70;;;;;;5094619;28;20550;-72
2023/11/10 01:25:32;;;;;;;7.32;4.85;;;5.40;73.90;;;;;;5094575;28;20246;-72
2023/11/10 01:27:59;;;;;;;6.07;3.75;;;5.30;73.60;;;;;;5094212;28;20239;-72
2023/11/10 01:30:27;;;;;;;7.55;4.05;;;5.20;74.00;;;;;;5094356;28;20263;-72
2023/11/10 01:32:56;;;;;;;6.95;4.05;;;5.20;74.60;;;;;;5094370;28;20189;-72
2023/11/10 01:35:23;;;;;;;6.65;3.33;;;5.20;75.00;;;;;;5094691;28;20220;-72
2023/11/10 01:37:50;;;;;;;5.10;3.60;;;5.20;75.20;;;;;;5094292;28;20581;-72
2023/11/10 01:40:19;;;;;;;7.25;3.92;;;5.20;75.20;;;;;;5094056;28;20219;-72
2023/11/10 01:42:46;;;;;;;5.38;4.47;;;5.20;75.10;;;;;;5094250;28;20221;-72
2023/11/10 01:45:13;;;;;;;7.82;4.07;;;5.20;75.70;;;;;;5094099;28;20217;-72
2023/11/10 01:47:45;;;;;;;7.13;3.50;;;5.20;75.70;;;;;;5094084;28;20246;-72
2023/11/10 01:50:13;;;;;;;4.50;2.90;;;5.10;76.00;;;;;;5094123;28;20528;-72
2023/11/10 01:52:42;;;;;;;4.78;3.40;;;5.10;75.70;;;;;;5093772;28;20196;-72
2023/11/10 01:55:11;;;;;;;6.82;3.67;;;5.10;75.20;;;;;;5093999;28;20221;-72
2023/11/10 01:57:40;;;;;;;5.45;2.88;;;5.00;74.90;;;;;;5093619;28;20281;-72
2023/11/10 02:00:08;;;;;;;5.35;3.65;;;5.00;74.80;;;;;;5093551;28;20198;-71
2023/11/10 02:02:35;;;;;;;4.32;3.35;;;5.00;74.80;;;;;;5093920;28;20185;-72
2023/11/10 02:05:04;;;;;;;6.35;3.58;;;4.90;74.90;;;;;;5094145;28;20201;-72
2023/11/10 02:07:31;;;;;;;5.50;4.10;;;4.90;75.30;;;;;;5093793;28;20193;-72
2023/11/10 02:09:59;;;;;;;5.57;3.75;;;4.90;75.20;;;;;;5093779;28;20637;-72
2023/11/10 02:12:26;;;;;;;7.88;3.78;;;4.90;75.60;;;;;;5093960;28;20523;-72
2023/11/10 02:14:52;;;;;;;10.60;3.80;;;5.00;75.90;;;;;;5093681;28;20181;-72
2023/11/10 02:17:20;;;;;;;5.82;3.50;;;5.00;76.00;;;;;;5093567;28;20193;-72
2023/11/10 02:19:47;;;;;;;8.05;3.58;;;5.00;76.10;;;;;;5093002;28;20197;-72
2023/11/10 02:22:16;;;;;;;6.22;3.53;;;5.10;76.00;;;;;;5093376;28;20214;-72
2023/11/10 02:24:47;;;;;;;6.80;3.83;;;5.20;75.40;;;;;;5093558;28;20228;-72
2023/11/10 02:27:15;;;;;;;4.72;3.50;;;5.10;74.00;;;;;;5093609;28;20190;-72
2023/11/10 02:29:42;;;;;;;6.30;3.80;;;5.10;74.00;;;;;;5093572;28;20213;-72
2023/11/10 02:32:10;;;;;;;6.93;3.35;;;5.00;74.40;;;;;;5093346;28;20236;-73
2023/11/10 02:34:38;;;;;;;9.13;3.85;;;5.00;74.80;;;;;;5093192;28;20193;-72
2023/11/10 02:37:08;;;;;;;8.77;3.55;;;5.10;74.80;;;;;;5093052;28;20192;-72
2023/11/10 02:39:36;;;;;;;6.43;4.03;;;5.10;74.50;;;;;;5093048;28;20208;-72
2023/11/10 02:42:04;;;;;;;6.82;4.15;;;5.10;74.30;;;;;;5094610;28;20197;-72
2023/11/10 02:44:33;;;;;;;14.35;4.50;;;5.10;74.90;;;;;;5099756;28;20200;-72
2023/11/10 02:47:00;;;;;;;5.68;4.00;;;5.10;75.40;;;;;;5099667;28;20713;-72
2023/11/10 02:49:30;;;;;;;10.18;4.40;;;5.10;75.90;;;;;;5099705;28;20246;-72
2023/11/10 02:51:57;;;;;;;6.88;4.10;;;5.20;75.70;;;;;;5100573;28;20251;-72
2023/11/10 02:54:24;;;;;;;6.13;4.10;;;5.20;75.40;;;;;;5100026;28;20193;-72
2023/11/10 02:56:51;;;;;;;6.75;4.18;;;5.20;75.20;;;;;;5100063;28;20286;-72
2023/11/10 02:59:19;;;;;;;6.72;4.18;;;5.20;75.40;;;;;;5100004;28;20189;-72
2023/11/10 03:01:47;;;;;;;6.50;4.15;;;5.30;75.10;;;;;;5099834;28;20200;-71
2023/11/10 03:04:14;;;;;;;5.70;3.53;;;5.20;74.80;;;;;;5099611;28;20177;-72
2023/11/10 03:06:41;;;;;;;5.95;3.53;;;5.10;75.00;;;;;;5099659;28;20193;-72
2023/11/10 03:09:08;;;;;;;6.25;3.47;;;5.20;75.00;;;;;;5099531;28;20185;-72
2023/11/10 03:11:35;;;;;;;6.60;3.78;;;5.10;74.50;;;;;;5099755;28;20313;-72
2023/11/10 03:14:02;;;;;;;4.95;3.53;;;5.10;74.00;;;;;;5099328;28;20270;-72
2023/11/10 03:16:29;;;;;;;5.65;3.75;;;5.10;73.50;;;;;;5099888;28;20189;-73
2023/11/10 03:18:58;;;;;;;5.30;3.72;;;5.10;73.10;;;;;;5099912;28;20185;-72
2023/11/10 03:21:26;;;;;;;5.95;3.22;;;4.90;73.20;;;;;;5099250;28;20295;-72
2023/11/10 03:23:55;;;;;;;9.00;3.90;;;4.90;73.80;;;;;;5099775;28;20200;-72
2023/11/10 03:26:22;;;;;;;5.22;3.00;;;4.80;74.10;;;;;;5099663;28;20190;-72
2023/11/10 03:28:49;;;;;;;5.07;3.25;;;4.90;73.80;;;;;;5099653;28;20239;-72
2023/11/10 03:31:16;;;;;;;5.18;3.60;;;4.80;73.50;;;;;;5099195;28;20260;-72
2023/11/10 03:33:44;;;;;;;11.15;3.80;;;4.70;73.40;;;;;;5099596;28;20193;-72
2023/11/10 03:36:12;;;;;;;4.20;3.30;;;4.70;73.80;;;;;;5098485;28;20228;-72
2023/11/10 03:38:39;;;;;;;5.00;3.28;;;4.60;74.00;;;;;;5098325;28;20193;-72
2023/11/10 03:41:07;;;;;;;5.35;3.53;;;4.60;74.70;;;;;;5098342;28;20193;-72
2023/11/10 03:43:34;;;;;;;4.95;2.85;;;4.60;75.30;;;;;;5098510;28;20247;-72
2023/11/10 03:46:01;;;;;;;7.45;4.03;;;4.60;75.60;;;;;;5098305;28;20254;-74
2023/11/10 03:48:29;;;;;;;5.95;3.70;;;4.70;75.80;;;;;;5098367;28;20282;-74
2023/11/10 03:50:56;;;;;;;5.35;3.60;;;4.70;76.10;;;;;;5098677;28;20286;-74
2023/11/10 03:53:24;;;;;;;3.95;2.97;;;4.70;76.00;;;;;;5097653;28;20189;-72
2023/11/10 03:55:51;;;;;;;5.15;3.25;;;4.70;75.40;;;;;;5094822;28;20201;-72
2023/11/10 03:58:18;;;;;;;5.18;3.72;;;4.70;75.00;;;;;;5095010;28;20639;-72
2023/11/10 04:00:45;;;;;;;5.55;2.95;;;4.70;74.80;;;;;;5094976;28;20658;-72
2023/11/10 04:03:14;;;;;;;4.07;3.17;;;4.60;73.60;;;;;;5094979;28;20190;-72
2023/11/10 04:05:43;;;;;;;6.28;3.60;;;4.60;72.80;;;;;;5095501;28;20258;-72
2023/11/10 04:08:14;;;;;;;5.55;3.70;;;4.50;72.70;;;;;;5095342;28;20273;-71
2023/11/10 04:10:43;;;;;;;4.95;3.80;;;4.50;72.80;;;;;;5095352;28;20201;-72
2023/11/10 04:13:10;;;;;;;7.22;4.43;;;4.40;73.70;;;;;;5095316;28;20325;-72
2023/11/10 04:15:37;;;;;;;6.32;3.22;;;4.40;74.90;;;;;;5095055;28;20197;-72
2023/11/10 04:18:04;;;;;;;6.15;4.10;;;4.40;75.80;;;;;;5094898;28;20262;-72
2023/11/10 04:20:32;;;;;;;9.30;6.20;;;4.50;76.70;;;;;;5094574;28;20298;-74
2023/11/10 04:22:59;;;;;;;8.75;4.00;;;4.50;77.30;;;;;;5094894;28;20539;-74
2023/11/10 04:25:26;;;;;;;6.28;4.28;;;4.60;77.30;;;;;;5094993;28;20200;-74
2023/11/10 04:27:55;;;;;;;6.72;3.97;;;4.60;77.10;;;;;;5094614;28;20193;-74
2023/11/10 04:30:22;;;;;;;7.45;5.10;;;4.60;76.70;;;;;;5094701;28;20213;-74
2023/11/10 04:32:49;;;;;;;10.23;5.10;;;4.60;76.40;;;;;;5094755;28;20193;-74
2023/11/10 04:35:16;;;;;;;7.60;4.20;;;4.50;76.10;;;;;;5094728;28;20294;-74
2023/11/10 04:37:43;;;;;;;6.82;4.85;;;4.50;76.40;;;;;;5095319;28;20326;-74
2023/11/10 04:40:15;;;;;;;7.15;4.50;;;4.50;76.90;;;;;;5094702;28;20221;-74
2023/11/10 04:42:42;;;;;;;6.10;3.97;;;4.50;77.10;;;;;;5094649;28;20182;-74
2023/11/10 04:45:11;;;;;;;6.38;3.95;;;4.50;77.40;;;;;;5094639;28;20354;-76
2023/11/10 04:47:37;;;;;;;8.07;3.65;;;4.50;78.50;;;;;;5094330;28;20190;-75
2023/11/10 04:50:06;;;;;;;10.88;6.30;;;4.50;78.90;;;;;;5094017;28;20666;-72
2023/11/10 04:52:33;;;;;;;13.85;9.02;;;4.50;79.10;;;;;;5094420;28;20239;-72
2023/11/10 04:55:00;;;;;;;9.00;5.80;;;4.50;79.20;;;;;;5093991;28;20193;-71
2023/11/10 04:57:28;;;;;;;8.88;4.22;;;4.60;79.20;;;;;;5093893;28;20286;-72
2023/11/10 04:59:55;;;;;;;7.53;4.15;;;4.60;78.40;;;;;;5094052;28;20239;-72
2023/11/10 05:02:23;;;;;;;5.97;3.42;;;4.60;77.80;;;;;;5093928;28;20189;-72
2023/11/10 05:04:52;;;;;;;5.20;3.28;;;4.60;77.60;;;;;;5093669;28;20193;-72
2023/11/10 05:07:19;;;;;;;7.18;4.18;;;4.60;77.40;;;;;;5093980;28;20594;-72
2023/11/10 05:09:46;;;;;;;6.32;3.80;;;4.60;77.30;;;;;;5094443;28;20193;-72
2023/11/10 05:12:13;;;;;;;6.60;4.25;;;4.60;77.40;;;;;;5093909;28;20216;-72
2023/11/10 05:14:42;;;;;;;6.60;3.40;;;4.60;77.50;;;;;;5093553;28;20769;-72
2023/11/10 05:17:10;;;;;;;5.20;3.70;;;4.60;77.40;;;;;;5094011;28;20201;-72
2023/11/10 05:19:39;;;;;;;5.03;3.60;;;4.70;77.70;;;;;;5093638;28;20213;-72
2023/11/10 05:22:06;;;;;;;6.00;3.97;;;4.70;77.50;;;;;;5093268;28;20201;-72
2023/11/10 05:24:33;;;;;;;7.85;4.38;;;4.70;77.60;;;;;;5093526;28;20185;-72
2023/11/10 05:27:02;;;;;;;6.72;4.68;;;4.70;78.00;;;;;;5093255;28;20648;-72
2023/11/10 05:29:29;;;;;;;6.03;4.50;;;4.80;78.10;;;;;;5093223;28;20193;-71
2023/11/10 05:31:57;;;;;;;6.63;4.32;;;4.80;77.50;;;;;;5093295;28;20249;-74
2023/11/10 05:34:24;;;;;;;8.27;4.28;;;4.90;77.30;;;;;;5093578;28;20599;-72
2023/11/10 05:36:53;;;;;;;6.53;4.03;;;4.90;77.50;;;;;;5093320;28;20193;-72
2023/11/10 05:39:20;;;;;;;4.20;2.80;;;4.90;77.60;;;;;;5093376;28;20193;-72
2023/11/10 05:41:47;;;;;;;5.25;3.20;;;4.90;77.90;;;;;;5093663;28;20278;-72
2023/11/10 05:44:14;;;;;;;6.25;3.50;;;5.00;78.00;;;;;;5093486;28;20189;-72
2023/11/10 05:46:41;;;;;;;5.45;2.90;;;5.00;78.20;;;;;;5092924;28;20199;-71
2023/11/10 05:49:08;;;;;;;4.80;3.22;;;5.00;78.10;;;;;;5093182;28;20550;-72
2023/11/10 05:51:36;;;;;;;5.28;3.60;;;5.00;78.30;;;;;;5092783;28;20209;-72
2023/11/10 05:54:05;;;;;;;12.60;3.55;;;5.10;78.40;;;;;;5092942;28;20556;-72
2023/11/10 05:56:32;;;;;;;5.45;3.70;;;5.00;78.30;;;;;;5093050;28;20197;-72
2023/11/10 05:59:01;;;;;;;4.70;3.35;;;5.00;78.30;;;;;;5092702;28;20643;-73
2023/11/10 06:01:29;;;;;;;6.90;4.38;;;5.00;78.20;;;;;;5092991;28;20262;-72
2023/11/10 06:03:56;;;;;;;7.07;3.58;;;5.00;78.30;;;;;;5092641;28;20284;-73
2023/11/10 06:06:24;;;;;;;6.20;4.22;;;5.00;78.40;;;;;;5092590;28;20276;-71
2023/11/10 06:08:52;;;;;;;5.75;3.88;;;5.00;78.30;;;;;;5092490;28;20281;-72
2023/11/10 06:11:21;;;;;;;6.35;4.25;;;5.00;78.20;;;;;;5092795;28;20210;-72
2023/11/10 06:13:48;;;;;;;6.03;4.07;;;5.00;78.10;;;;;;5092585;28;20232;-72
2023/11/10 06:16:21;;;;;;;4.97;4.10;;;5.00;78.00;;;;;;5092492;28;20278;-72
2023/11/10 06:18:50;;;;;;;5.20;3.58;;;4.90;77.90;;;;;;5092127;28;20178;-74
2023/11/10 06:21:22;;;;;;;5.18;3.25;;;4.90;78.00;;;;;;5092356;28;20237;-74
2023/11/10 06:23:50;;;;;;;5.15;2.92;;;4.90;78.10;;;;;;5092537;28;20215;-74
2023/11/10 06:26:21;;;;;;;4.78;2.80;;;5.00;78.50;;;;;;5092524;28;20616;-75
2023/11/10 06:28:48;;;;;;;5.85;3.45;;;5.00;79.00;;;;;;5092121;28;20181;-74
2023/11/10 06:31:20;;;;;;;5.45;3.65;;;5.10;79.60;;;;;;5092304;28;20318;-75
2023/11/10 06:33:58;;;;;;;5.60;3.30;;;5.00;79.50;;;;;;5092249;28;20283;-74
2023/11/10 06:36:25;;;;;;;4.93;3.30;;;5.10;79.60;;;;;;5092453;28;20192;-74
2023/11/10 06:38:52;;;;;;;5.22;3.40;;;5.00;79.40;;;;;;5092303;28;20197;-72
2023/11/10 06:41:26;;;;;;;6.18;3.78;;;5.00;78.90;;;;;;5092509;28;20613;-73
2023/11/10 06:43:53;;;;;;;5.00;3.13;;;5.00;79.20;;;;;;5092532;28;20181;-72
2023/11/10 06:46:22;;;;;;;4.63;3.20;;;5.20;79.40;;;;;;5091897;28;20229;-72
2023/11/10 06:48:51;;;;;;;4.38;2.92;;;5.20;79.40;;;;;;5091840;28;20302;-72
2023/11/10 06:51:18;;;;;;;6.35;2.85;;;5.30;79.50;;;;;;5091891;28;20643;-72
2023/11/10 06:53:46;;;;;;;4.68;2.80;;;5.50;79.60;;;;;;5092344;28;20193;-72
2023/11/10 06:56:13;;;;;;;3.60;2.70;;;5.70;79.30;;;;;;5091835;28;20193;-72
2023/11/10 06:58:41;;;;;;;5.80;3.60;;;5.90;78.80;;;;;;5092168;28;20199;-72
2023/11/10 07:01:10;;;;;;;5.22;2.88;;;6.20;78.00;;;;;;5091813;28;20193;-72
2023/11/10 07:03:37;;;;;;;4.80;3.17;;;6.70;77.10;;;;;;5091946;28;20202;-72
2023/11/10 07:06:07;;;;;;;4.55;2.50;;;7.10;76.60;;;;;;5091856;28;20242;-72
2023/11/10 07:08:36;;;;;;;5.03;2.45;;;7.60;74.70;;;;;;5091994;28;20197;-73
2023/11/10 07:11:03;;;;;;;3.85;2.47;;;8.10;72.60;;;;;;5092137;28;20220;-73
2023/11/10 07:13:30;;;;;;;4.68;2.72;;;8.60;71.50;;;;;;5092791;28;20193;-73
2023/11/10 07:16:01;;;;;;;4.70;2.13;;;9.10;69.30;;;;;;5091651;28;20341;-73
2023/11/10 07:18:31;;;;;;;4.97;2.75;;;9.60;68.70;;;;;;5091862;28;20278;-73
2023/11/10 07:20:58;;;;;;;11.63;2.40;;;10.00;66.60;;;;;;5091541;28;20217;-73
2023/11/10 07:23:25;;;;;;;4.43;2.80;;;10.40;64.90;;;;;;5091765;28;20194;-73
2023/11/10 07:25:59;;;;;;;6.55;2.80;;;10.80;64.20;;;;;;5091786;28;20198;-73
2023/11/10 07:28:27;;;;;;;2.60;1.80;;;11.20;63.00;;;;;;5092813;28;20195;-73
2023/11/10 07:30:57;;;;;;;4.13;2.50;;;11.60;60.90;;;;;;5095521;28;20530;-75
2023/11/10 07:33:24;;;;;;;3.60;2.20;;;11.90;59.90;;;;;;5095665;28;20600;-73
2023/11/10 07:35:54;;;;;;;5.10;2.50;;;12.20;59.60;;;;;;5095123;28;20274;-74
2023/11/10 07:38:21;;;;;;;3.67;2.53;;;12.50;59.50;;;;;;5095470;28;20221;-74
2023/11/10 07:40:49;;;;;;;3.72;2.33;;;12.80;58.70;;;;;;5095390;28;20581;-73
2023/11/10 07:43:18;;;;;;;5.55;3.05;;;12.90;57.20;;;;;;5095427;28;20193;-73
2023/11/10 07:45:46;;;;;;;3.95;2.53;;;12.90;57.10;;;;;;5095636;28;20193;-73
2023/11/10 07:48:14;;;;;;;4.60;2.67;;;12.60;55.90;;;;;;5095279;28;20221;-73
2023/11/10 07:50:43;;;;;;;5.40;3.30;;;12.40;56.00;;;;;;5094991;28;20835;-73
2023/11/10 07:53:12;;;;;;;4.30;2.88;;;12.20;56.40;;;;;;5095136;28;20463;-73
2023/11/10 07:55:39;;;;;;;4.40;3.08;;;12.00;57.00;;;;;;5095522;28;20186;-73
2023/11/10 07:58:06;;;;;;;4.50;2.78;;;11.90;57.60;;;;;;5095036;28;20301;-73
2023/11/10 08:00:35;;;;;;;3.50;2.72;;;11.80;58.10;;;;;;5094750;28;20196;-73
2023/11/10 08:03:03;;;;;;;5.20;2.90;;;11.70;58.10;;;;;;5095262;28;20197;-73
2023/11/10 08:05:31;;;;;;;8.10;2.95;;;11.60;58.30;;;;;;5094624;28;20225;-75
2023/11/10 08:07:58;;;;;;;4.10;2.80;;;11.60;58.60;;;;;;5095239;28;20197;-74
2023/11/10 08:10:29;;;;;;;3.10;2.20;;;11.60;58.90;;;;;;5095306;28;20190;-73
2023/11/10 08:12:56;;;;;;;4.95;2.33;;;11.50;58.90;;;;;;5094811;28;20341;-73
2023/11/10 08:15:23;;;;;;;2.75;2.00;;;11.40;59.00;;;;;;5094917;28;20648;-73
2023/11/10 08:17:52;;;;;;;3.25;2.03;;;11.30;59.40;;;;;;5095268;28;20265;-73
2023/11/10 08:20:19;;;;;;;4.30;2.38;;;11.60;60.30;;;;;;5094439;28;20213;-73
2023/11/10 08:22:47;;;;;;;3.30;2.40;;;11.80;60.00;;;;;;5094731;28;20215;-73
2023/11/10 08:25:15;;;;;;;3.30;2.05;;;11.90;59.80;;;;;;5094632;28;20197;-73
2023/11/10 08:27:42;;;;;;;2.90;1.95;;;12.10;59.10;;;;;;5094195;28;20226;-73
2023/11/10 08:30:09;;;;;;;3.73;2.67;;;12.30;59.30;;;;;;5094194;28;20185;-73
2023/11/10 08:32:37;;;;;;;2.53;1.80;;;12.40;59.30;;;;;;5094092;28;20965;-73
2023/11/10 08:35:05;;;;;;;3.30;2.00;;;12.50;59.30;;;;;;5094057;28;20533;-73
2023/11/10 08:37:32;;;;;;;4.07;2.03;;;12.40;58.20;;;;;;5094449;28;20435;-73
2023/11/10 08:40:00;;;;;;;2.70;1.93;;;12.30;58.00;;;;;;5093221;28;20910;-72
2023/11/10 08:42:27;;;;;;;3.25;1.67;;;12.20;58.80;;;;;;5093782;28;20947;-73
2023/11/10 08:44:55;;;;;;;2.47;1.43;;;12.00;57.90;;;;;;5093952;28;20648;-73
2023/11/10 08:47:22;;;;;;;10.68;2.08;;;11.80;58.20;;;;;;5094583;28;20510;-73
2023/11/10 08:49:50;;;;;;;2.90;1.55;;;11.60;58.60;;;;;;5094216;28;20193;-73
2023/11/10 08:52:19;;;;;;;2.30;1.08;;;11.50;58.60;;;;;;5094326;28;20278;-73
2023/11/10 08:54:46;;;;;;;2.45;1.00;;;11.40;58.80;;;;;;5093989;28;20185;-72
2023/11/10 08:57:15;;;;;;;2.25;1.15;;;11.30;59.10;;;;;;5093436;28;20217;-73
2023/11/10 08:59:45;;;;;;;3.55;0.90;;;11.20;59.40;;;;;;5093922;28;20189;-73
2023/11/10 09:02:14;;;;;;;2.55;1.20;;;11.10;59.70;;;;;;5093775;28;20235;-73
2023/11/10 09:04:43;;;;;;;2.20;0.90;;;11.00;59.90;;;;;;5094159;28;20297;-72
2023/11/10 09:07:10;;;;;;;2.00;0.70;;;10.90;59.90;;;;;;5093572;28;20644;-72
2023/11/10 09:09:38;;;;;;;2.10;0.90;;;10.90;59.60;;;;;;5093769;28;20189;-73
2023/11/10 09:12:05;;;;;;;2.10;1.00;;;10.80;60.00;;;;;;5093696;28;20259;-72
2023/11/10 09:14:37;;;;;;;2.10;1.15;;;10.80;60.40;;;;;;5093806;28;20559;-72
2023/11/10 09:17:10;;;;;;;2.30;0.90;;;10.70;60.40;;;;;;5093843;28;20189;-72
2023/11/10 09:19:41;;;;;;;2.38;0.93;;;10.60;60.70;;;;;;5093749;28;20525;-72
2023/11/10 09:22:08;;;;;;;2.90;0.70;;;10.60;61.10;;;;;;5093186;28;20178;-72
2023/11/10 09:24:36;;;;;;;1.80;0.60;;;10.50;60.10;;;;;;5093763;28;20189;-73
2023/11/10 09:27:05;;;;;;;1.73;0.70;;;10.50;59.40;;;;;;5093396;28;20274;-72
2023/11/10 09:29:33;;;;;;;1.80;0.70;;;10.40;59.40;;;;;;5093394;28;20190;-73
2023/11/10 09:32:02;;;;;;;1.88;0.60;;;10.40;59.80;;;;;;5093278;28;20564;-73
2023/11/10 09:34:30;;;;;;;1.60;0.50;;;10.30;60.20;;;;;;5093283;28;20575;-72
2023/11/10 09:36:57;;;;;;;1.90;0.80;;;10.30;60.60;;;;;;5093433;28;20195;-72
2023/11/10 09:39:25;;;;;;;1.85;0.68;;;10.20;61.10;;;;;;5093195;28;20215;-73
2023/11/10 09:41:55;;;;;;;2.15;0.80;;;10.20;61.60;;;;;;5092766;28;20197;-72
2023/11/10 09:44:23;;;;;;;2.42;0.95;;;10.10;61.60;;;;;;5092876;28;20178;-73
2023/11/10 09:46:50;;;;;;;2.22;0.95;;;10.10;61.70;;;;;;5092752;28;20193;-72
2023/11/10 09:49:20;;;;;;;2.25;1.10;;;10.10;62.50;;;;;;5093257;28;20193;-72
2023/11/10 09:51:49;;;;;;;3.65;1.10;;;10.20;62.90;;;;;;5091763;28;20699;-72
2023/11/10 09:54:18;;;;;;;2.00;0.80;;;10.30;63.00;;;;;;5092999;28;20193;-73
2023/11/10 09:56:46;;;;;;;5.10;1.25;;;10.40;63.00;;;;;;5092608;28;20211;-72
2023/11/10 09:59:14;;;;;;;2.10;0.70;;;10.50;62.80;;;;;;5092924;28;20289;-72
2023/11/10 10:01:41;;;;;;;2.70;0.90;;;10.70;62.20;;;;;;5092480;28;20741;-73
2023/11/10 10:04:11;;;;;;;3.00;0.90;;;10.80;62.20;;;;;;5092546;28;20193;-72
2023/11/10 10:06:41;;;;;;;2.00;0.90;;;10.90;62.20;;;;;;5092639;28;20177;-73
2023/11/10 10:09:09;;;;;;;2.92;0.85;;;11.10;62.50;;;;;;5092894;28;20258;-73
2023/11/10 10:11:37;;;;;;;2.00;0.82;;;11.20;62.10;;;;;;5092694;28;20193;-73
2023/11/10 10:14:04;;;;;;;1.80;0.77;;;11.40;61.50;;;;;;5092795;28;20238;-73
2023/11/10 10:16:34;;;;;;;1.70;0.70;;;12.30;62.70;;;;;;5092628;28;20550;-73
2023/11/10 10:19:05;;;;;;;1.70;0.60;;;13.70;58.40;;;;;;5093103;28;20449;-73
2023/11/10 10:21:42;;;;;;;1.87;0.70;;;15.00;56.70;;;;;;5092216;28;20483;-73
2023/11/10 10:24:12;;;;;;;1.77;0.70;;;16.30;51.80;;;;;;5092568;28;20507;-73
2023/11/10 10:26:40;;;;;;;1.90;0.70;;;16.40;48.20;;;;;;5092240;28;20424;-73
2023/11/10 10:29:07;;;;;;;1.90;0.70;;;16.30;47.50;;;;;;5092938;28;20450;-73
2023/11/10 10:31:34;;;;;;;1.70;0.60;;;16.00;46.40;;;;;;5092130;28;20482;-73
2023/11/10 10:34:04;;;;;;;1.80;0.60;;;15.70;45.80;;;;;;5092459;28;20475;-73
2023/11/10 10:36:38;;;;;;;1.70;0.60;;;15.70;45.90;;;;;;5092518;28;20501;-73
2023/11/10 10:39:11;;;;;;;2.07;0.60;;;15.50;45.40;;;;;;5092729;28;20442;-73
2023/11/10 10:41:39;;;;;;;1.70;0.57;;;15.60;45.80;;;;;;5092429;28;20489;-73
2023/11/10 10:44:08;;;;;;;1.80;0.60;;;16.10;45.40;;;;;;5092380;28;20495;-73
2023/11/10 10:46:36;;;;;;;1.70;0.60;;;16.40;44.00;;;;;;5091912;28;20922;-73
2023/11/10 10:49:07;;;;;;;2.00;0.80;;;16.70;44.50;;;;;;5092481;28;20481;-73
2023/11/10 10:51:36;;;;;;;1.70;0.50;;;17.10;43.40;;;;;;5092549;28;20424;-73
2023/11/10 10:54:05;;;;;;;1.70;0.50;;;17.70;42.50;;;;;;5091788;28;20507;-73
2023/11/10 10:56:35;;;;;;;1.90;0.60;;;17.60;40.50;;;;;;5092128;28;20431;-73
2023/11/10 10:59:03;;;;;;;1.80;0.60;;;17.10;40.50;;;;;;5092053;28;20462;-73
2023/11/10 11:01:31;;;;;;;1.70;0.50;;;16.50;41.20;;;;;;5091805;28;20909;-74
2023/11/10 11:04:19;;;;;;;1.90;0.70;;;16.00;41.70;;;;;;5093973;28;20446;-74
2023/11/10 11:07:00;;;;;;;1.80;0.60;;;15.60;42.80;;;;;;5096303;28;20469;-73
2023/11/10 11:09:44;;;;;;;1.87;0.70;;;15.60;43.70;;;;;;5096085;28;20420;-73
2023/11/10 11:12:52;;;;;;;1.80;0.60;;;15.60;43.80;;;;;;5095882;28;20785;-73
2023/11/10 11:15:26;;;;;;;1.93;0.60;;;15.30;43.20;;;;;;5095791;28;20556;-73
2023/11/10 11:18:26;;;;;;;1.97;0.63;;;15.10;44.00;;;;;;5096110;28;20869;-73
2023/11/10 11:20:54;;;;;;;1.70;0.60;;;14.80;44.70;;;;;;5053158;28;20472;-73
2023/11/10 11:23:22;;;;;;;1.80;0.60;;;14.80;45.80;;;;;;5094461;28;20508;-73
2023/11/10 11:25:58;;;;;;;3.90;0.63;;;15.50;45.60;;;;;;5096040;28;20518;-73
2023/11/10 11:28:34;;;;;;;1.77;0.60;;;16.00;44.10;;;;;;5096020;28;20426;-73
2023/11/10 11:31:11;;;;;;;1.67;0.50;;;15.90;43.10;;;;;;5095401;28;20423;-73
2023/11/10 11:33:48;;;;;;;2.40;0.80;;;15.50;44.10;;;;;;5095660;28;20570;-73
2023/11/10 11:36:16;;;;;;;2.10;0.80;;;15.10;43.80;;;;;;5095574;28;20435;-73
2023/11/10 11:38:43;;;;;;;6.43;1.00;;;14.90;44.30;;;;;;5095602;28;20463;-72
2023/11/10 11:41:15;;;;;;;3.07;1.30;;;14.70;44.70;;;;;;5095191;28;20517;-74
2023/11/10 11:43:50;;;;;;;2.30;0.83;;;14.40;45.30;;;;;;5095158;28;20572;-74
2023/11/10 11:46:23;;;;;;;3.00;1.10;;;14.10;46.30;;;;;;5095571;28;20501;-72
2023/11/10 11:48:50;;;;;;;1.90;0.80;;;13.80;46.80;;;;;;5095469;28;20898;-73
2023/11/10 11:51:23;;;;;;;2.00;0.90;;;13.70;46.50;;;;;;5095506;28;20432;-72
2023/11/10 11:53:50;;;;;;;2.00;0.80;;;13.60;46.90;;;;;;5096031;28;20548;-73
2023/11/10 11:56:21;;;;;;;2.50;0.90;;;13.50;48.10;;;;;;5095093;28;20448;-72
2023/11/10 11:58:50;;;;;;;1.80;0.70;;;13.80;48.60;;;;;;5095326;28;20435;-73
2023/11/10 12:01:17;;;;;;;1.80;0.70;;;15.00;47.70;;;;;;5094870;28;20467;-73
2023/11/10 12:03:44;;;;;;;1.70;0.50;;;17.20;44.60;;;;;;5094715;28;20987;-73
2023/11/10 12:06:11;;;;;;;2.80;0.80;;;18.60;41.30;;;;;;5095018;28;20539;-73
2023/11/10 12:08:40;;;;;;;2.37;0.90;;;20.20;39.60;;;;;;5094690;28;20467;-74
2023/11/10 12:11:08;;;;;;;1.80;0.60;;;23.10;35.90;;;;;;5095001;28;20431;-74
2023/11/10 12:13:35;;;;;;;1.80;0.53;;;23.70;30.50;;;;;;5094672;28;20501;-74
2023/11/10 12:16:04;;;;;;;1.80;0.50;;;22.90;30.30;;;;;;5093821;28;20770;-74
2023/11/10 12:18:35;;;;;;;1.87;0.60;;;21.80;30.60;;;;;;5094857;28;20788;-74
2023/11/10 12:21:02;;;;;;;2.23;0.70;;;20.70;32.30;;;;;;5094322;28;20459;-73
2023/11/10 12:23:29;;;;;;;2.10;0.57;;;19.80;33.10;;;;;;5094920;28;20443;-73
2023/11/10 12:25:57;;;;;;;1.80;0.50;;;19.20;34.10;;;;;;5094951;28;20436;-73
2023/11/10 12:28:24;;;;;;;1.83;0.60;;;19.50;35.30;;;;;;5094506;28;20784;-73
2023/11/10 12:30:52;;;;;;;1.90;0.50;;;20.90;34.30;;;;;;5094499;28;20442;-74
2023/11/10 12:33:20;;;;;;;1.73;0.60;;;21.30;31.30;;;;;;5093968;28;20561;-73
2023/11/10 12:35:50;;;;;;;2.27;0.70;;;20.70;31.10;;;;;;5094412;28;20428;-73
2023/11/10 12:38:17;;;;;;;2.10;0.70;;;19.80;31.10;;;;;;5093982;28;20511;-73
2023/11/10 12:40:44;;;;;;;2.20;0.70;;;18.90;32.10;;;;;;5094690;28;20519;-73
2023/11/10 12:43:12;;;;;;;1.73;0.53;;;18.00;32.60;;;;;;5094159;28;20444;-73
2023/11/10 12:45:41;;;;;;;1.70;0.60;;;17.30;33.80;;;;;;5093947;28;20558;-73
2023/11/10 12:48:14;;;;;;;2.10;0.70;;;16.70;34.60;;;;;;5093825;28;20455;-73
2023/11/10 12:50:44;;;;;;;2.37;0.80;;;16.20;35.80;;;;;;5093947;28;20492;-73
2023/11/10 12:53:11;;;;;;;2.00;0.80;;;15.80;36.80;;;;;;5094046;28;20455;-73
2023/11/10 12:55:38;;;;;;;2.20;0.60;;;15.40;37.20;;;;;;5094600;28;20468;-73
2023/11/10 12:58:06;;;;;;;1.93;0.70;;;15.10;37.40;;;;;;5094581;28;20432;-73
2023/11/10 13:00:35;;;;;;;1.70;0.67;;;14.80;37.90;;;;;;5095090;28;20482;-73